Terminal Aerodrome Forecast
Issued by NWS Charleston, WV

Current Version | Previous Version | Graphics & Text | Print | Product List | Glossary On
Versions: 1 2 3 4 5 6 7 8 9 10 11 12 13 14 15 16 17 18 19 20 21 22 23 24 25
000
FTUS41 KRLX 202300
TAFPKB
TAF
KPKB 202333Z 2100/2124 18005KT P6SM SKC
     FM210800 20005KT 5SM BR BKN025
     FM211400 22008KT 6SM SHRA BR VCTS BKN025CB
     FM211700 23009KT P6SM BKN025
     FM212100 27010KT P6SM BKN040
     FM212300 28010KT P6SM SCT040=

USA.gov is the U.S. government's official web portal to all federal, state and local government web resources and services.